Perry, Michigan
Current Conditions -  °F | °C
As of 2:14 AM on Thursday 23 Oct 2014 (Local Time) from KRNP Reporting Station
Haze Haze  
Wind Chill: 33°   Ceiling: 700
Heat Index: 33°   Visibility: 1mi
Dew Point: 33°   Wind: 0mph
Humidity: 100%   Direction: NA
Pressure: 30.29"   Gusts: NA
Location:  42.83°N, 84.22°W
Report Text: KRNP 230614Z AUTO 00000KT 1SM BR VV007 00/00 A3029 RMK AO2 T00030003
Loading
Personal Weather Stations






























Interactive Weather Map
Tropical Storm Tracking
New forecast layout! Learn more

10-Day Weather Forecast

Advertisements
Track Severe Weather on mobile